JNA856 ZBAA-RKSI
Flight info
| Callsign | JNA856 |
|---|---|
| Flight time | 1h 25m |
| Altitude | 29100 |
| Route | MUGLO W34 VAPGU W100 ORAVA W201 UNSEK A326 DONVO G597 AGAVO/N0463F290 Y644 REBIT |
| Aircraft | B738/M-SDE2E3FGHIRWXY/LB1 |
Departure
| Time | 2026-05-05 01:32 |
|---|---|
| Airport | Beijing Capital International Airport (ZBAA) |
Arrival
| Time | 2026-05-05 02:58 |
|---|---|
| Airport | Incheon International Airport (RKSI) |
| Time | Latitude | Longitude | Altitude | Speed | Heading |
|---|---|---|---|---|---|
| 2026-05-05 01:17 | 40.08262 | 116.58893 | 120 ft | 0 kts | 173° |
| 2026-05-05 01:23 | 40.08268 | 116.58892 | 119 ft | 4 kts | 174° |
| 2026-05-05 01:23 | 40.08295 | 116.58889 | 121 ft | 2 kts | 173° |
| 2026-05-05 01:24 | 40.08317 | 116.58882 | 118 ft | 4 kts | 146° |
| 2026-05-05 01:24 | 40.08332 | 116.58857 | 121 ft | 4 kts | 105° |
| 2026-05-05 01:24 | 40.08336 | 116.58823 | 120 ft | 4 kts | 85° |
| 2026-05-05 01:24 | 40.08335 | 116.58811 | 120 ft | 0 kts | 83° |
| 2026-05-05 01:26 | 40.08335 | 116.58812 | 120 ft | 0 kts | 83° |
| 2026-05-05 01:26 | 40.08350 | 116.58847 | 118 ft | 9 kts | 36° |
| 2026-05-05 01:27 | 40.08423 | 116.58847 | 122 ft | 11 kts | 353° |
| 2026-05-05 01:27 | 40.08491 | 116.58864 | 123 ft | 10 kts | 50° |
| 2026-05-05 01:27 | 40.08510 | 116.58983 | 123 ft | 10 kts | 82° |
| 2026-05-05 01:27 | 40.08516 | 116.59044 | 121 ft | 10 kts | 83° |
| 2026-05-05 01:28 | 40.08524 | 116.59132 | 123 ft | 10 kts | 83° |
| 2026-05-05 01:28 | 40.08532 | 116.59217 | 123 ft | 9 kts | 76° |
| 2026-05-05 01:28 | 40.08584 | 116.59249 | 122 ft | 9 kts | 352° |
| 2026-05-05 01:28 | 40.08646 | 116.59239 | 121 ft | 9 kts | 354° |
| 2026-05-05 01:29 | 40.08709 | 116.59229 | 121 ft | 10 kts | 353° |
| 2026-05-05 01:29 | 40.08785 | 116.59222 | 121 ft | 12 kts | 16° |
| 2026-05-05 01:29 | 40.08816 | 116.59311 | 121 ft | 11 kts | 83° |
| 2026-05-05 01:29 | 40.08820 | 116.59353 | 122 ft | 0 kts | 83° |
| 2026-05-05 01:31 | 40.08820 | 116.59354 | 123 ft | 1 kts | 83° |
| 2026-05-05 01:31 | 40.08824 | 116.59393 | 123 ft | 9 kts | 83° |
| 2026-05-05 01:31 | 40.08807 | 116.59500 | 122 ft | 14 kts | 153° |
| 2026-05-05 01:31 | 40.08700 | 116.59521 | 121 ft | 25 kts | 173° |
| 2026-05-05 01:32 | 40.08285 | 116.59586 | 120 ft | 94 kts | 173° |
| 2026-05-05 01:32 | 40.07429 | 116.59722 | 123 ft | 152 kts | 173° |
| 2026-05-05 01:32 | 40.06257 | 116.59910 | 405 ft | 176 kts | 172° |
| 2026-05-05 01:32 | 40.05088 | 116.60099 | 1297 ft | 167 kts | 172° |
| 2026-05-05 01:33 | 40.03915 | 116.60274 | 2047 ft | 169 kts | 172° |
| 2026-05-05 01:33 | 40.02745 | 116.60456 | 2761 ft | 169 kts | 173° |
| 2026-05-05 01:33 | 40.01577 | 116.60660 | 3412 ft | 174 kts | 176° |
| 2026-05-05 01:33 | 40.00271 | 116.60850 | 3697 ft | 202 kts | 177° |
| 2026-05-05 01:34 | 39.98882 | 116.61055 | 3857 ft | 223 kts | 176° |
| 2026-05-05 01:34 | 39.97400 | 116.61284 | 4127 ft | 237 kts | 176° |
| 2026-05-05 01:34 | 39.95680 | 116.61548 | 4396 ft | 259 kts | 176° |
| 2026-05-05 01:34 | 39.93870 | 116.61828 | 5064 ft | 263 kts | 176° |
| 2026-05-05 01:35 | 39.92048 | 116.62111 | 5839 ft | 264 kts | 177° |
| 2026-05-05 01:35 | 39.91710 | 116.62164 | 5984 ft | 264 kts | 177° |
| 2026-05-05 01:35 | 39.91122 | 116.62257 | 6228 ft | 265 kts | 177° |
| 2026-05-05 01:36 | 39.89280 | 116.62546 | 6928 ft | 268 kts | 177° |
| 2026-05-05 01:36 | 39.87421 | 116.62838 | 7640 ft | 270 kts | 177° |
| 2026-05-05 01:36 | 39.85548 | 116.63132 | 8371 ft | 272 kts | 178° |
| 2026-05-05 01:36 | 39.83659 | 116.63427 | 9084 ft | 275 kts | 178° |
| 2026-05-05 01:37 | 39.81740 | 116.63719 | 9769 ft | 279 kts | 178° |
| 2026-05-05 01:37 | 39.79827 | 116.64008 | 10336 ft | 286 kts | 178° |
| 2026-05-05 01:37 | 39.77776 | 116.64317 | 10484 ft | 308 kts | 177° |
| 2026-05-05 01:37 | 39.75583 | 116.64649 | 10663 ft | 328 kts | 177° |
| 2026-05-05 01:38 | 39.73241 | 116.65006 | 10807 ft | 348 kts | 177° |
| 2026-05-05 01:38 | 39.70776 | 116.65383 | 10970 ft | 364 kts | 176° |
| 2026-05-05 01:38 | 39.68230 | 116.65773 | 11393 ft | 372 kts | 176° |
| 2026-05-05 01:38 | 39.65757 | 116.66155 | 11947 ft | 375 kts | 176° |
| 2026-05-05 01:39 | 39.63164 | 116.66737 | 12536 ft | 379 kts | 172° |
| 2026-05-05 01:39 | 39.60624 | 116.67443 | 13133 ft | 382 kts | 171° |
| 2026-05-05 01:39 | 39.58047 | 116.68154 | 13730 ft | 385 kts | 171° |
| 2026-05-05 01:39 | 39.55412 | 116.68859 | 14248 ft | 389 kts | 171° |
| 2026-05-05 01:40 | 39.52856 | 116.69968 | 14718 ft | 400 kts | 156° |
| 2026-05-05 01:40 | 39.50413 | 116.71748 | 15278 ft | 404 kts | 152° |
| 2026-05-05 01:40 | 39.47964 | 116.73588 | 15841 ft | 408 kts | 152° |
| 2026-05-05 01:40 | 39.45484 | 116.75423 | 16351 ft | 413 kts | 153° |
| 2026-05-05 01:41 | 39.42968 | 116.77251 | 16868 ft | 417 kts | 153° |
| 2026-05-05 01:41 | 39.40424 | 116.79075 | 17377 ft | 420 kts | 153° |
| 2026-05-05 01:41 | 39.37849 | 116.80909 | 17863 ft | 425 kts | 152° |
| 2026-05-05 01:41 | 39.35249 | 116.82757 | 18311 ft | 429 kts | 152° |
| 2026-05-05 01:42 | 39.32595 | 116.84553 | 18722 ft | 432 kts | 157° |
| 2026-05-05 01:42 | 39.29802 | 116.86021 | 19153 ft | 435 kts | 161° |
| 2026-05-05 01:42 | 39.26947 | 116.87354 | 19584 ft | 438 kts | 161° |
| 2026-05-05 01:42 | 39.24093 | 116.88695 | 20020 ft | 441 kts | 161° |
| 2026-05-05 01:43 | 39.21213 | 116.90111 | 20437 ft | 445 kts | 160° |
| 2026-05-05 01:43 | 39.18328 | 116.91588 | 20827 ft | 449 kts | 156° |
| 2026-05-05 01:43 | 39.15701 | 116.93792 | 21167 ft | 456 kts | 136° |
| 2026-05-05 01:43 | 39.13757 | 116.97013 | 21591 ft | 458 kts | 119° |
| 2026-05-05 01:44 | 39.12547 | 117.00800 | 22011 ft | 459 kts | 102° |
| 2026-05-05 01:44 | 39.12158 | 117.04875 | 22407 ft | 460 kts | 92° |
| 2026-05-05 01:44 | 39.11990 | 117.09005 | 22758 ft | 463 kts | 91° |
| 2026-05-05 01:44 | 39.11843 | 117.13116 | 23037 ft | 468 kts | 91° |
| 2026-05-05 01:45 | 39.11681 | 117.17310 | 23408 ft | 471 kts | 91° |
| 2026-05-05 01:45 | 39.11497 | 117.21512 | 23862 ft | 469 kts | 92° |
| 2026-05-05 01:45 | 39.11295 | 117.25702 | 24294 ft | 468 kts | 92° |
| 2026-05-05 01:45 | 39.11084 | 117.29886 | 24725 ft | 467 kts | 92° |
| 2026-05-05 01:46 | 39.10869 | 117.34054 | 25184 ft | 466 kts | 92° |
| 2026-05-05 01:46 | 39.10653 | 117.38224 | 25640 ft | 465 kts | 92° |
| 2026-05-05 01:46 | 39.10438 | 117.42387 | 26095 ft | 464 kts | 92° |
| 2026-05-05 01:46 | 39.10223 | 117.46526 | 26537 ft | 463 kts | 92° |
| 2026-05-05 01:47 | 39.10001 | 117.50659 | 27069 ft | 460 kts | 92° |
| 2026-05-05 01:47 | 39.09776 | 117.54743 | 27640 ft | 457 kts | 92° |
| 2026-05-05 01:47 | 39.09550 | 117.58815 | 28085 ft | 456 kts | 92° |
| 2026-05-05 01:47 | 39.09323 | 117.62891 | 28481 ft | 457 kts | 92° |
| 2026-05-05 01:48 | 39.09098 | 117.66917 | 28886 ft | 456 kts | 92° |
| 2026-05-05 01:48 | 39.08869 | 117.70980 | 29361 ft | 455 kts | 92° |
| 2026-05-05 01:48 | 39.08640 | 117.75034 | 29847 ft | 453 kts | 92° |
| 2026-05-05 01:48 | 39.08410 | 117.79082 | 30227 ft | 452 kts | 92° |
| 2026-05-05 01:49 | 39.08179 | 117.83119 | 30579 ft | 452 kts | 92° |
| 2026-05-05 01:49 | 39.07947 | 117.87151 | 30923 ft | 452 kts | 92° |
| 2026-05-05 01:49 | 39.07478 | 117.95271 | 30943 ft | 456 kts | 92° |
| 2026-05-05 01:50 | 39.07001 | 118.03339 | 30935 ft | 449 kts | 93° |
| 2026-05-05 01:50 | 39.05953 | 118.11275 | 30949 ft | 451 kts | 101° |
| 2026-05-05 01:51 | 39.04570 | 118.19157 | 30967 ft | 452 kts | 101° |
| 2026-05-05 01:51 | 39.03254 | 118.27017 | 30960 ft | 453 kts | 100° |
| 2026-05-05 01:52 | 39.01981 | 118.34958 | 30958 ft | 454 kts | 100° |
| 2026-05-05 01:52 | 39.00711 | 118.42909 | 30965 ft | 453 kts | 99° |
| 2026-05-05 01:53 | 38.99432 | 118.50843 | 30957 ft | 453 kts | 100° |
| 2026-05-05 01:53 | 38.98152 | 118.58763 | 30965 ft | 452 kts | 99° |
| 2026-05-05 01:54 | 38.96873 | 118.66658 | 30982 ft | 451 kts | 99° |
| 2026-05-05 01:54 | 38.95593 | 118.74532 | 30970 ft | 449 kts | 100° |
| 2026-05-05 01:55 | 38.94312 | 118.82378 | 30965 ft | 448 kts | 99° |
| 2026-05-05 01:55 | 38.93037 | 118.90145 | 30969 ft | 447 kts | 100° |
| 2026-05-05 01:56 | 38.91750 | 118.97966 | 30993 ft | 451 kts | 99° |
| 2026-05-05 01:56 | 38.90425 | 119.05962 | 30986 ft | 461 kts | 99° |
| 2026-05-05 01:57 | 38.89079 | 119.14000 | 30983 ft | 465 kts | 99° |
| 2026-05-05 01:57 | 38.87706 | 119.22148 | 30977 ft | 468 kts | 100° |
| 2026-05-05 01:58 | 38.86336 | 119.30258 | 30982 ft | 469 kts | 99° |
| 2026-05-05 01:58 | 38.84952 | 119.38422 | 30983 ft | 468 kts | 100° |
| 2026-05-05 01:59 | 38.83564 | 119.46571 | 30984 ft | 467 kts | 99° |
| 2026-05-05 01:59 | 38.82173 | 119.54689 | 30995 ft | 465 kts | 99° |
| 2026-05-05 02:00 | 38.80783 | 119.62772 | 30999 ft | 463 kts | 102° |
| 2026-05-05 02:00 | 38.79392 | 119.70831 | 30999 ft | 462 kts | 100° |
| 2026-05-05 02:01 | 38.78011 | 119.78806 | 31000 ft | 461 kts | 101° |
| 2026-05-05 02:01 | 38.76649 | 119.86833 | 31013 ft | 460 kts | 98° |
| 2026-05-05 02:02 | 38.75430 | 119.94502 | 31002 ft | 460 kts | 98° |
| 2026-05-05 02:02 | 38.74132 | 120.02249 | 31000 ft | 460 kts | 99° |
| 2026-05-05 02:03 | 38.72764 | 120.10254 | 31014 ft | 460 kts | 99° |
| 2026-05-05 02:03 | 38.70349 | 120.17802 | 31035 ft | 467 kts | 128° |
| 2026-05-05 02:04 | 38.67956 | 120.20629 | 30980 ft | 472 kts | 144° |
| 2026-05-05 02:04 | 38.65046 | 120.22573 | 30988 ft | 475 kts | 161° |
| 2026-05-05 02:04 | 38.59120 | 120.25995 | 31026 ft | 468 kts | 134° |
| 2026-05-05 02:05 | 38.57158 | 120.29255 | 31020 ft | 461 kts | 113° |
| 2026-05-05 02:05 | 38.56237 | 120.33118 | 31025 ft | 454 kts | 92° |
| 2026-05-05 02:05 | 38.56438 | 120.37085 | 31053 ft | 446 kts | 72° |
| 2026-05-05 02:05 | 38.57272 | 120.40900 | 31014 ft | 447 kts | 75° |
| 2026-05-05 02:06 | 38.57623 | 120.44864 | 31027 ft | 452 kts | 89° |
| 2026-05-05 02:06 | 38.57293 | 120.48867 | 31024 ft | 456 kts | 98° |
| 2026-05-05 02:06 | 38.55894 | 120.56790 | 31021 ft | 458 kts | 101° |
| 2026-05-05 02:07 | 38.54531 | 120.64754 | 31022 ft | 459 kts | 99° |
| 2026-05-05 02:07 | 38.53241 | 120.72704 | 31036 ft | 463 kts | 99° |
| 2026-05-05 02:08 | 38.51931 | 120.80772 | 31028 ft | 464 kts | 98° |
| 2026-05-05 02:08 | 38.50608 | 120.88840 | 31033 ft | 463 kts | 99° |
| 2026-05-05 02:09 | 38.49279 | 120.96884 | 31041 ft | 463 kts | 99° |
| 2026-05-05 02:09 | 38.47944 | 121.04928 | 31036 ft | 463 kts | 99° |
| 2026-05-05 02:10 | 38.46607 | 121.12961 | 31037 ft | 462 kts | 100° |
| 2026-05-05 02:10 | 38.45332 | 121.21000 | 31037 ft | 462 kts | 98° |
| 2026-05-05 02:11 | 38.44311 | 121.27678 | 31043 ft | 462 kts | 99° |
| 2026-05-05 02:11 | 38.42771 | 121.37009 | 31040 ft | 462 kts | 98° |
| 2026-05-05 02:12 | 38.40783 | 121.49019 | 31039 ft | 461 kts | 100° |
| 2026-05-05 02:13 | 38.39453 | 121.57018 | 31052 ft | 461 kts | 98° |
| 2026-05-05 02:13 | 38.38116 | 121.65018 | 31051 ft | 461 kts | 100° |
| 2026-05-05 02:14 | 38.37008 | 121.71633 | 31056 ft | 461 kts | 101° |
| 2026-05-05 02:14 | 38.35662 | 121.79626 | 31057 ft | 461 kts | 100° |
| 2026-05-05 02:15 | 38.34313 | 121.87607 | 31071 ft | 461 kts | 101° |
| 2026-05-05 02:15 | 38.32957 | 121.95599 | 31069 ft | 462 kts | 101° |
| 2026-05-05 02:16 | 38.31594 | 122.03594 | 31083 ft | 462 kts | 101° |
| 2026-05-05 02:16 | 38.30228 | 122.11589 | 31089 ft | 462 kts | 101° |
| 2026-05-05 02:17 | 38.28861 | 122.19528 | 31095 ft | 463 kts | 101° |
| 2026-05-05 02:17 | 38.27500 | 122.27539 | 31093 ft | 463 kts | 99° |
| 2026-05-05 02:18 | 38.26383 | 122.35601 | 31099 ft | 463 kts | 97° |
| 2026-05-05 02:18 | 38.24832 | 122.43544 | 31122 ft | 465 kts | 112° |
| 2026-05-05 02:18 | 38.23285 | 122.47166 | 31102 ft | 468 kts | 123° |
| 2026-05-05 02:19 | 38.21253 | 122.50397 | 31112 ft | 470 kts | 132° |
| 2026-05-05 02:19 | 38.16595 | 122.56227 | 31114 ft | 470 kts | 135° |
| 2026-05-05 02:20 | 38.11959 | 122.62105 | 31114 ft | 470 kts | 134° |
| 2026-05-05 02:20 | 38.07373 | 122.68032 | 31112 ft | 470 kts | 133° |
| 2026-05-05 02:21 | 38.02804 | 122.73975 | 31125 ft | 470 kts | 133° |
| 2026-05-05 02:21 | 37.98265 | 122.79874 | 31128 ft | 469 kts | 133° |
| 2026-05-05 02:22 | 37.93701 | 122.85788 | 31133 ft | 469 kts | 134° |
| 2026-05-05 02:22 | 37.89133 | 122.91691 | 31130 ft | 469 kts | 134° |
| 2026-05-05 02:23 | 37.84561 | 122.97588 | 31136 ft | 469 kts | 134° |
| 2026-05-05 02:23 | 37.79990 | 123.03473 | 31149 ft | 469 kts | 134° |
| 2026-05-05 02:24 | 37.75409 | 123.09361 | 31155 ft | 469 kts | 134° |
| 2026-05-05 02:24 | 37.70822 | 123.15246 | 31148 ft | 470 kts | 134° |
| 2026-05-05 02:25 | 37.66234 | 123.21122 | 31153 ft | 470 kts | 134° |
| 2026-05-05 02:25 | 37.61669 | 123.26958 | 31163 ft | 471 kts | 134° |
| 2026-05-05 02:26 | 37.57043 | 123.32872 | 31075 ft | 475 kts | 133° |
| 2026-05-05 02:26 | 37.53185 | 123.38876 | 31073 ft | 469 kts | 126° |
| 2026-05-05 02:27 | 37.49357 | 123.45487 | 31071 ft | 468 kts | 126° |
| 2026-05-05 02:27 | 37.45483 | 123.52113 | 31079 ft | 472 kts | 126° |
| 2026-05-05 02:28 | 37.41537 | 123.58743 | 31073 ft | 475 kts | 127° |
| 2026-05-05 02:28 | 37.37561 | 123.65375 | 31067 ft | 473 kts | 127° |
| 2026-05-05 02:29 | 37.33624 | 123.71932 | 31079 ft | 468 kts | 127° |
| 2026-05-05 02:29 | 37.29703 | 123.78453 | 31082 ft | 466 kts | 127° |
| 2026-05-05 02:30 | 37.25808 | 123.84921 | 31091 ft | 469 kts | 127° |
| 2026-05-05 02:30 | 37.21871 | 123.91449 | 30843 ft | 465 kts | 127° |
| 2026-05-05 02:30 | 37.19930 | 123.94660 | 30266 ft | 461 kts | 127° |
| 2026-05-05 02:31 | 37.18213 | 123.98042 | 29330 ft | 462 kts | 114° |
| 2026-05-05 02:31 | 37.17151 | 124.01854 | 28242 ft | 466 kts | 101° |
| 2026-05-05 02:31 | 37.16770 | 124.05885 | 27191 ft | 468 kts | 89° |
| 2026-05-05 02:31 | 37.16942 | 124.09970 | 26164 ft | 470 kts | 85° |
| 2026-05-05 02:32 | 37.17171 | 124.14063 | 25249 ft | 471 kts | 85° |
| 2026-05-05 02:32 | 37.17369 | 124.18149 | 24590 ft | 465 kts | 85° |
| 2026-05-05 02:32 | 37.17527 | 124.22164 | 24010 ft | 458 kts | 86° |
| 2026-05-05 02:32 | 37.17659 | 124.26139 | 23434 ft | 452 kts | 88° |
| 2026-05-05 02:33 | 37.17752 | 124.30095 | 23231 ft | 457 kts | 88° |
| 2026-05-05 02:33 | 37.17834 | 124.34065 | 23123 ft | 453 kts | 88° |
| 2026-05-05 02:33 | 37.17920 | 124.38007 | 23110 ft | 452 kts | 87° |
| 2026-05-05 02:33 | 37.18009 | 124.41952 | 23102 ft | 453 kts | 88° |
| 2026-05-05 02:34 | 37.18100 | 124.45902 | 23108 ft | 453 kts | 87° |
| 2026-05-05 02:34 | 37.18191 | 124.49856 | 23097 ft | 454 kts | 88° |
| 2026-05-05 02:34 | 37.18279 | 124.53760 | 23106 ft | 454 kts | 88° |
| 2026-05-05 02:34 | 37.18367 | 124.57720 | 23108 ft | 454 kts | 87° |
| 2026-05-05 02:35 | 37.18453 | 124.61683 | 23105 ft | 454 kts | 88° |
| 2026-05-05 02:35 | 37.18538 | 124.65639 | 23108 ft | 454 kts | 88° |
| 2026-05-05 02:35 | 37.18622 | 124.69602 | 23108 ft | 454 kts | 88° |
| 2026-05-05 02:35 | 37.18704 | 124.73560 | 23117 ft | 454 kts | 88° |
| 2026-05-05 02:36 | 37.18786 | 124.77520 | 23112 ft | 454 kts | 88° |
| 2026-05-05 02:36 | 37.18866 | 124.81471 | 23094 ft | 448 kts | 88° |
| 2026-05-05 02:36 | 37.18943 | 124.85292 | 22491 ft | 432 kts | 88° |
| 2026-05-05 02:36 | 37.19018 | 124.89000 | 21525 ft | 427 kts | 88° |
| 2026-05-05 02:37 | 37.19094 | 124.92707 | 20462 ft | 425 kts | 88° |
| 2026-05-05 02:37 | 37.19169 | 124.96392 | 19541 ft | 420 kts | 88° |
| 2026-05-05 02:37 | 37.19241 | 125.00024 | 18759 ft | 413 kts | 89° |
| 2026-05-05 02:37 | 37.19311 | 125.03552 | 18427 ft | 395 kts | 89° |
| 2026-05-05 02:38 | 37.19376 | 125.06910 | 18228 ft | 375 kts | 89° |
| 2026-05-05 02:38 | 37.19437 | 125.10104 | 17919 ft | 359 kts | 89° |
| 2026-05-05 02:38 | 37.19495 | 125.13191 | 17476 ft | 350 kts | 89° |
| 2026-05-05 02:38 | 37.19550 | 125.16177 | 17245 ft | 335 kts | 89° |
| 2026-05-05 02:39 | 37.19602 | 125.19060 | 16637 ft | 332 kts | 89° |
| 2026-05-05 02:39 | 37.19654 | 125.21993 | 15809 ft | 338 kts | 89° |
| 2026-05-05 02:39 | 37.19694 | 125.24886 | 15471 ft | 330 kts | 93° |
| 2026-05-05 02:39 | 37.19414 | 125.27711 | 15244 ft | 326 kts | 101° |
| 2026-05-05 02:40 | 37.19009 | 125.30485 | 14912 ft | 320 kts | 101° |
| 2026-05-05 02:40 | 37.18608 | 125.33193 | 14519 ft | 313 kts | 101° |
| 2026-05-05 02:40 | 37.18211 | 125.35880 | 13977 ft | 313 kts | 101° |
| 2026-05-05 02:40 | 37.17817 | 125.38570 | 13397 ft | 313 kts | 101° |
| 2026-05-05 02:41 | 37.17423 | 125.41275 | 13242 ft | 318 kts | 101° |
| 2026-05-05 02:41 | 37.17026 | 125.44028 | 13127 ft | 323 kts | 101° |
| 2026-05-05 02:41 | 37.16628 | 125.46790 | 13027 ft | 320 kts | 101° |
| 2026-05-05 02:41 | 37.16235 | 125.49524 | 13006 ft | 317 kts | 101° |
| 2026-05-05 02:42 | 37.15851 | 125.52248 | 13008 ft | 317 kts | 101° |
| 2026-05-05 02:42 | 37.15474 | 125.54973 | 13001 ft | 318 kts | 101° |
| 2026-05-05 02:42 | 37.15095 | 125.57691 | 13011 ft | 321 kts | 100° |
| 2026-05-05 02:42 | 37.14711 | 125.60465 | 13015 ft | 323 kts | 102° |
| 2026-05-05 02:43 | 37.14331 | 125.63220 | 12997 ft | 319 kts | 101° |
| 2026-05-05 02:43 | 37.14001 | 125.65954 | 12997 ft | 318 kts | 94° |
| 2026-05-05 02:43 | 37.14350 | 125.68687 | 13009 ft | 319 kts | 71° |
| 2026-05-05 02:43 | 37.15319 | 125.71186 | 12780 ft | 318 kts | 63° |
| 2026-05-05 02:44 | 37.16397 | 125.73603 | 12431 ft | 317 kts | 61° |
| 2026-05-05 02:44 | 37.17479 | 125.76008 | 12011 ft | 318 kts | 61° |
| 2026-05-05 02:44 | 37.18574 | 125.78417 | 11640 ft | 318 kts | 62° |
| 2026-05-05 02:44 | 37.19673 | 125.80814 | 11296 ft | 316 kts | 61° |
| 2026-05-05 02:45 | 37.20762 | 125.83199 | 10980 ft | 314 kts | 61° |
| 2026-05-05 02:45 | 37.21843 | 125.85578 | 10678 ft | 312 kts | 61° |
| 2026-05-05 02:45 | 37.22895 | 125.87899 | 10498 ft | 302 kts | 61° |
| 2026-05-05 02:45 | 37.23927 | 125.90181 | 10079 ft | 300 kts | 61° |
| 2026-05-05 02:46 | 37.24952 | 125.92460 | 9598 ft | 301 kts | 61° |
| 2026-05-05 02:46 | 37.25977 | 125.94746 | 9292 ft | 299 kts | 61° |
| 2026-05-05 02:46 | 37.26991 | 125.97013 | 9058 ft | 297 kts | 61° |
| 2026-05-05 02:46 | 37.28006 | 125.99289 | 9030 ft | 301 kts | 61° |
| 2026-05-05 02:47 | 37.29092 | 126.01529 | 8994 ft | 300 kts | 50° |
| 2026-05-05 02:47 | 37.30688 | 126.03147 | 8899 ft | 295 kts | 27° |
| 2026-05-05 02:47 | 37.32531 | 126.04214 | 8634 ft | 291 kts | 22° |
| 2026-05-05 02:47 | 37.34386 | 126.05190 | 8264 ft | 293 kts | 21° |
| 2026-05-05 02:48 | 37.36268 | 126.06169 | 7954 ft | 292 kts | 21° |
| 2026-05-05 02:48 | 37.38147 | 126.07143 | 7661 ft | 291 kts | 21° |
| 2026-05-05 02:48 | 37.40087 | 126.07780 | 7336 ft | 288 kts | 4° |
| 2026-05-05 02:48 | 37.42078 | 126.07989 | 7065 ft | 286 kts | 1° |
| 2026-05-05 02:49 | 37.44057 | 126.08152 | 6771 ft | 285 kts | 1° |
| 2026-05-05 02:49 | 37.46038 | 126.08310 | 6476 ft | 284 kts | 1° |
| 2026-05-05 02:49 | 37.47957 | 126.08461 | 6340 ft | 274 kts | 1° |
| 2026-05-05 02:49 | 37.49841 | 126.08612 | 5998 ft | 270 kts | 1° |
| 2026-05-05 02:50 | 37.51716 | 126.08762 | 5545 ft | 270 kts | 1° |
| 2026-05-05 02:50 | 37.53595 | 126.08921 | 5125 ft | 271 kts | 5° |
| 2026-05-05 02:50 | 37.55347 | 126.09704 | 4876 ft | 266 kts | 35° |
| 2026-05-05 02:50 | 37.56594 | 126.11366 | 4561 ft | 260 kts | 58° |
| 2026-05-05 02:51 | 37.57552 | 126.13295 | 4237 ft | 259 kts | 60° |
| 2026-05-05 02:51 | 37.58478 | 126.15238 | 3913 ft | 258 kts | 61° |
| 2026-05-05 02:51 | 37.59385 | 126.17141 | 3829 ft | 248 kts | 61° |
| 2026-05-05 02:51 | 37.60247 | 126.18944 | 3732 ft | 238 kts | 61° |
| 2026-05-05 02:52 | 37.61080 | 126.20672 | 3649 ft | 228 kts | 61° |
| 2026-05-05 02:52 | 37.61687 | 126.21921 | 3475 ft | 225 kts | 61° |
| 2026-05-05 02:52 | 37.62515 | 126.23606 | 3165 ft | 225 kts | 61° |
| 2026-05-05 02:53 | 37.63316 | 126.25278 | 2931 ft | 220 kts | 69° |
| 2026-05-05 02:53 | 37.63555 | 126.27118 | 2638 ft | 208 kts | 107° |
| 2026-05-05 02:53 | 37.63080 | 126.28783 | 2385 ft | 200 kts | 120° |
| 2026-05-05 02:53 | 37.62497 | 126.30369 | 2073 ft | 199 kts | 121° |
| 2026-05-05 02:54 | 37.61863 | 126.31862 | 1755 ft | 193 kts | 136° |
| 2026-05-05 02:54 | 37.60809 | 126.32788 | 1684 ft | 184 kts | 155° |
| 2026-05-05 02:54 | 37.59774 | 126.33771 | 1623 ft | 187 kts | 143° |
| 2026-05-05 02:54 | 37.58760 | 126.34761 | 1629 ft | 183 kts | 149° |
| 2026-05-05 02:55 | 37.57725 | 126.35688 | 1622 ft | 183 kts | 149° |
| 2026-05-05 02:55 | 37.56679 | 126.36619 | 1628 ft | 183 kts | 149° |
| 2026-05-05 02:55 | 37.55667 | 126.37524 | 1609 ft | 172 kts | 149° |
| 2026-05-05 02:55 | 37.54714 | 126.38375 | 1578 ft | 171 kts | 150° |
| 2026-05-05 02:56 | 37.53756 | 126.39229 | 1387 ft | 162 kts | 149° |
| 2026-05-05 02:56 | 37.52868 | 126.40023 | 1146 ft | 151 kts | 150° |
| 2026-05-05 02:56 | 37.52032 | 126.40768 | 948 ft | 145 kts | 148° |
| 2026-05-05 02:56 | 37.51221 | 126.41491 | 748 ft | 142 kts | 147° |
| 2026-05-05 02:57 | 37.50402 | 126.42222 | 571 ft | 147 kts | 146° |
| 2026-05-05 02:57 | 37.49574 | 126.42974 | 357 ft | 147 kts | 146° |
| 2026-05-05 02:57 | 37.48739 | 126.43725 | 154 ft | 148 kts | 147° |
| 2026-05-05 02:57 | 37.47899 | 126.44463 | 33 ft | 141 kts | 146° |
| 2026-05-05 02:58 | 37.47196 | 126.45082 | 32 ft | 102 kts | 145° |
| 2026-05-05 02:58 | 37.46871 | 126.45358 | 30 ft | 21 kts | 155° |
| 2026-05-05 02:58 | 37.46761 | 126.45398 | 32 ft | 9 kts | 175° |
| 2026-05-05 02:58 | 37.46719 | 126.45402 | 32 ft | 6 kts | 175° |
| 2026-05-05 02:59 | 37.46693 | 126.45406 | 31 ft | 3 kts | 174° |
| 2026-05-05 02:59 | 37.46692 | 126.45406 | 32 ft | 0 kts | 174° |
| 2026-05-05 02:59 | 37.46681 | 126.45407 | 32 ft | 6 kts | 174° |
| 2026-05-05 03:00 | 37.46601 | 126.45418 | 32 ft | 17 kts | 174° |
| 2026-05-05 03:00 | 37.46463 | 126.45471 | 32 ft | 21 kts | 148° |
| 2026-05-05 03:00 | 37.46349 | 126.45465 | 32 ft | 19 kts | 233° |
| 2026-05-05 03:00 | 37.46282 | 126.45346 | 32 ft | 15 kts | 234° |
| 2026-05-05 03:01 | 37.46229 | 126.45252 | 32 ft | 12 kts | 234° |
| 2026-05-05 03:01 | 37.46205 | 126.45209 | 32 ft | 0 kts | 234° |
| 2026-05-05 03:02 | 37.46203 | 126.45207 | 32 ft | 2 kts | 233° |
| 2026-05-05 03:02 | 37.46193 | 126.45146 | 32 ft | 10 kts | 266° |
| 2026-05-05 03:02 | 37.46188 | 126.45073 | 30 ft | 7 kts | 261° |
| 2026-05-05 03:03 | 37.46187 | 126.45065 | 31 ft | 2 kts | 255° |
| 2026-05-05 03:03 | 37.46170 | 126.45031 | 32 ft | 7 kts | 233° |
| 2026-05-05 03:03 | 37.46139 | 126.44976 | 32 ft | 8 kts | 234° |
| 2026-05-05 03:03 | 37.46108 | 126.44919 | 32 ft | 8 kts | 241° |
| 2026-05-05 03:04 | 37.46097 | 126.44891 | 30 ft | 0 kts | 247° |
| 2026-05-05 03:04 | 37.46085 | 126.44854 | 32 ft | 8 kts | 247° |
| 2026-05-05 03:04 | 37.46058 | 126.44804 | 32 ft | 12 kts | 235° |
| 2026-05-05 03:04 | 37.45999 | 126.44699 | 32 ft | 16 kts | 234° |
| 2026-05-05 03:05 | 37.45935 | 126.44587 | 32 ft | 15 kts | 234° |
| 2026-05-05 03:05 | 37.45875 | 126.44479 | 32 ft | 15 kts | 234° |
| 2026-05-05 03:05 | 37.45792 | 126.44352 | 30 ft | 14 kts | 202° |
| 2026-05-05 03:05 | 37.45712 | 126.44354 | 32 ft | 11 kts | 204° |
| 2026-05-05 03:06 | 37.45676 | 126.44305 | 32 ft | 11 kts | 235° |
| 2026-05-05 03:06 | 37.45632 | 126.44226 | 32 ft | 11 kts | 234° |
| 2026-05-05 03:06 | 37.45588 | 126.44151 | 32 ft | 10 kts | 232° |
| 2026-05-05 03:06 | 37.45556 | 126.44154 | 32 ft | 5 kts | 137° |
| 2026-05-05 03:07 | 37.45533 | 126.44174 | 31 ft | 5 kts | 146° |
| 2026-05-05 03:07 | 37.45509 | 126.44195 | 30 ft | 0 kts | 144° |